createdAt,value
2019-04-29T00:01:14.572Z,5.06
2019-04-29T00:03:42.985Z,5.06
2019-04-29T00:06:11.434Z,5.04
2019-04-29T00:08:40.448Z,5.02
2019-04-29T00:11:08.972Z,4.99
2019-04-29T00:13:37.413Z,4.95
2019-04-29T00:16:16.454Z,4.90
2019-04-29T00:18:46.536Z,4.87
2019-04-29T00:21:15.259Z,4.92
2019-04-29T00:23:43.710Z,4.95
2019-04-29T00:26:12.089Z,4.95
2019-04-29T00:28:40.461Z,4.90
2019-04-29T00:31:08.909Z,4.88
2019-04-29T00:33:37.284Z,4.91
2019-04-29T00:36:05.672Z,4.89
2019-04-29T00:38:35.726Z,4.88
2019-04-29T00:41:14.587Z,4.86
2019-04-29T00:43:50.073Z,4.88
2019-04-29T00:46:18.430Z,4.83
2019-04-29T00:48:46.807Z,4.85
2019-04-29T00:51:15.189Z,4.89
2019-04-29T00:53:44.145Z,4.90
2019-04-29T00:56:12.527Z,4.88
2019-04-29T00:58:40.900Z,4.89
2019-04-29T01:01:12.825Z,4.96
2019-04-29T01:03:41.415Z,5.01
2019-04-29T01:06:09.745Z,5.01
2019-04-29T01:08:38.119Z,5.01
2019-04-29T01:11:06.570Z,5.00
2019-04-29T01:13:34.977Z,5.03
2019-04-29T01:16:03.374Z,5.06
2019-04-29T01:18:31.769Z,5.07
2019-04-29T01:21:00.139Z,5.10
2019-04-29T01:23:28.543Z,5.13
2019-04-29T01:25:58.629Z,5.18
2019-04-29T01:28:28.652Z,5.20
2019-04-29T01:31:01.219Z,5.22
2019-04-29T01:33:29.599Z,5.20
2019-04-29T01:36:18.103Z,5.19
2019-04-29T01:38:48.793Z,5.14
2019-04-29T01:41:31.052Z,5.13
2019-04-29T01:44:00.297Z,5.12
2019-04-29T01:46:29.314Z,5.17
2019-04-29T01:48:57.856Z,5.18
2019-04-29T01:51:26.346Z,5.17
2019-04-29T01:53:54.726Z,5.20
2019-04-29T01:56:23.138Z,5.20
2019-04-29T01:58:51.547Z,5.23
2019-04-29T02:01:20.011Z,5.23
2019-04-29T02:03:48.457Z,5.24
2019-04-29T02:06:16.842Z,5.24
2019-04-29T02:08:45.319Z,5.26
2019-04-29T02:11:13.696Z,5.26
2019-04-29T02:13:42.077Z,5.28
2019-04-29T02:16:10.534Z,5.28
2019-04-29T02:18:38.915Z,5.26
2019-04-29T02:21:07.371Z,5.29
2019-04-29T02:23:37.396Z,5.30
2019-04-29T02:26:06.976Z,5.29
2019-04-29T02:28:35.381Z,5.30
2019-04-29T02:31:21.793Z,5.30
2019-04-29T02:33:50.250Z,5.31
2019-04-29T02:36:18.632Z,5.32
2019-04-29T02:39:04.623Z,5.34
2019-04-29T02:41:37.844Z,5.34
2019-04-29T02:44:07.870Z,5.39
2019-04-29T02:46:36.241Z,5.40
2019-04-29T02:49:04.627Z,5.42
2019-04-29T02:51:46.884Z,5.47
2019-04-29T02:54:15.297Z,5.50
2019-04-29T02:56:45.330Z,5.52
2019-04-29T02:59:15.361Z,5.54
2019-04-29T03:01:54.174Z,5.58
2019-04-29T03:04:24.198Z,5.60
2019-04-29T03:06:52.606Z,5.62
2019-04-29T03:09:20.981Z,5.60
2019-04-29T03:11:49.367Z,5.50
2019-04-29T03:14:17.822Z,5.61
2019-04-29T03:16:46.263Z,5.64
2019-04-29T03:19:16.450Z,5.67
2019-04-29T03:21:52.155Z,5.70
2019-04-29T03:24:20.557Z,5.72
2019-04-29T03:26:48.935Z,5.74
2019-04-29T03:29:23.008Z,5.78
2019-04-29T03:31:53.819Z,5.80
2019-04-29T03:34:22.426Z,5.82
2019-04-29T03:36:50.800Z,5.83
2019-04-29T03:39:19.204Z,5.85
2019-04-29T03:41:47.659Z,5.87
2019-04-29T03:44:16.034Z,5.89
2019-04-29T03:46:44.418Z,5.91
2019-04-29T03:49:12.862Z,5.94
2019-04-29T03:51:41.272Z,5.95
2019-04-29T03:54:10.876Z,5.98
2019-04-29T03:56:39.315Z,6.00
2019-04-29T03:59:07.738Z,6.03
2019-04-29T04:01:40.707Z,6.04
2019-04-29T04:04:16.549Z,6.04
2019-04-29T04:06:46.571Z,6.05
2019-04-29T04:09:19.045Z,6.06
2019-04-29T04:11:47.526Z,6.07
2019-04-29T04:14:15.912Z,6.08
2019-04-29T04:16:57.944Z,6.11
2019-04-29T04:19:28.041Z,6.13
2019-04-29T04:21:56.434Z,6.16
2019-04-29T04:24:24.811Z,6.19
2019-04-29T04:26:53.185Z,6.20
2019-04-29T04:29:21.564Z,6.21
2019-04-29T04:31:49.949Z,6.22
2019-04-29T04:34:18.337Z,6.25
2019-04-29T04:36:46.714Z,6.27
2019-04-29T04:39:15.095Z,6.28
2019-04-29T04:41:43.471Z,6.30
2019-04-29T04:44:11.851Z,6.35
2019-04-29T04:46:40.254Z,6.37
2019-04-29T04:49:08.642Z,6.37
2019-04-29T04:51:37.057Z,6.39
2019-04-29T04:54:05.446Z,6.42
2019-04-29T04:56:33.829Z,6.44
2019-04-29T04:59:02.251Z,6.45
2019-04-29T05:01:30.625Z,6.46
2019-04-29T05:03:59.027Z,6.50
2019-04-29T05:06:27.438Z,6.53
2019-04-29T05:08:55.895Z,6.58
2019-04-29T05:11:24.289Z,6.62
2019-04-29T05:13:52.671Z,6.64
2019-04-29T05:16:21.102Z,6.67
2019-04-29T05:18:49.458Z,6.68
2019-04-29T05:21:17.865Z,6.73
2019-04-29T05:23:46.242Z,6.76
2019-04-29T05:26:14.629Z,6.79
2019-04-29T05:28:43.008Z,6.81
2019-04-29T05:31:11.393Z,6.82
2019-04-29T05:33:39.776Z,6.85
2019-04-29T05:36:09.831Z,6.86
2019-04-29T05:38:45.816Z,6.90
2019-04-29T05:41:14.204Z,6.91
2019-04-29T05:43:46.692Z,6.94
2019-04-29T05:46:23.277Z,6.96
2019-04-29T05:48:51.922Z,6.99
2019-04-29T05:51:33.845Z,7.00
2019-04-29T05:54:03.875Z,7.02
2019-04-29T05:56:32.260Z,7.07
2019-04-29T05:59:00.646Z,7.14
2019-04-29T06:01:31.584Z,7.19
2019-04-29T06:04:00.238Z,7.23
2019-04-29T06:06:28.626Z,7.29
2019-04-29T06:08:57.007Z,7.31
2019-04-29T06:11:25.475Z,7.36
2019-04-29T06:13:53.883Z,7.38
2019-04-29T06:16:22.705Z,7.40
2019-04-29T06:18:59.757Z,7.41
2019-04-29T06:21:21.333Z,7.48
2019-04-29T06:23:49.733Z,7.52
2019-04-29T06:26:18.124Z,7.57
2019-04-29T06:28:46.514Z,7.62
2019-04-29T06:31:14.966Z,7.65
2019-04-29T06:33:43.353Z,7.69
2019-04-29T06:36:11.798Z,7.73
2019-04-29T06:38:40.487Z,7.78
2019-04-29T06:41:09.792Z,7.81
2019-04-29T06:43:39.147Z,7.88
2019-04-29T06:46:08.326Z,7.90
2019-04-29T06:48:36.740Z,7.96
2019-04-29T06:51:05.147Z,8.04
2019-04-29T06:53:33.533Z,8.07
2019-04-29T06:56:02.018Z,8.11
2019-04-29T06:58:32.633Z,8.18
2019-04-29T07:01:01.138Z,8.19
2019-04-29T07:03:30.651Z,8.25
2019-04-29T07:05:59.042Z,8.31
2019-04-29T07:08:27.463Z,8.35
2019-04-29T07:11:00.709Z,8.38
2019-04-29T07:13:25.972Z,8.43
2019-04-29T07:15:54.401Z,8.49
2019-04-29T07:18:22.813Z,8.59
2019-04-29T07:20:51.203Z,8.66
2019-04-29T07:23:19.593Z,8.75
2019-04-29T07:25:48.052Z,8.78
2019-04-29T07:28:18.379Z,8.80
2019-04-29T07:31:00.948Z,8.81
2019-04-29T07:33:22.060Z,8.86
2019-04-29T07:35:47.889Z,8.77
2019-04-29T07:38:16.939Z,8.93
2019-04-29T07:40:45.331Z,9.01
2019-04-29T07:43:13.741Z,9.08
2019-04-29T07:45:46.823Z,9.17
2019-04-29T07:48:15.221Z,9.22
2019-04-29T07:50:43.701Z,9.30
2019-04-29T07:53:12.082Z,9.35
2019-04-29T07:55:40.488Z,9.35
2019-04-29T07:58:08.871Z,9.39
2019-04-29T08:00:38.130Z,9.39
2019-04-29T08:03:08.561Z,9.38
2019-04-29T08:05:37.288Z,9.43
2019-04-29T08:08:05.770Z,9.51
2019-04-29T08:10:34.322Z,9.56
2019-04-29T08:13:03.380Z,9.63
2019-04-29T08:15:32.234Z,9.71
2019-04-29T08:18:06.657Z,9.74
2019-04-29T08:20:30.796Z,9.76
2019-04-29T08:23:02.453Z,9.82
2019-04-29T08:25:29.314Z,9.91
2019-04-29T08:27:57.698Z,9.96
2019-04-29T08:30:26.079Z,9.95
2019-04-29T08:32:54.466Z,10.04
2019-04-29T08:35:22.886Z,10.11
2019-04-29T08:37:51.269Z,10.12
2019-04-29T08:40:19.799Z,10.12
2019-04-29T08:42:58.945Z,10.12
2019-04-29T08:45:29.070Z,10.20
2019-04-29T08:47:58.785Z,10.24
2019-04-29T08:50:27.174Z,10.30
2019-04-29T08:52:55.588Z,10.37
2019-04-29T08:55:26.695Z,10.41
2019-04-29T08:57:54.085Z,10.50
2019-04-29T09:00:22.542Z,10.51
2019-04-29T09:02:50.974Z,10.56
2019-04-29T09:05:19.348Z,10.61
2019-04-29T09:07:47.810Z,10.53
2019-04-29T09:10:16.474Z,10.61
2019-04-29T09:12:44.853Z,10.66
2019-04-29T09:15:13.715Z,10.68
2019-04-29T09:17:42.140Z,10.65
2019-04-29T09:20:10.766Z,10.63
2019-04-29T09:22:40.976Z,10.60
2019-04-29T09:25:11.440Z,10.60
2019-04-29T09:27:44.932Z,10.61
2019-04-29T09:30:13.724Z,10.60
2019-04-29T09:32:42.120Z,10.54
2019-04-29T09:35:10.740Z,10.53
2019-04-29T09:37:39.144Z,10.58
2019-04-29T09:40:09.044Z,10.70
2019-04-29T09:42:39.078Z,10.67
2019-04-29T09:45:25.831Z,10.80
2019-04-29T09:47:54.314Z,10.85
2019-04-29T09:50:22.707Z,10.96
2019-04-29T09:52:51.095Z,10.96
2019-04-29T09:55:20.883Z,10.92
2019-04-29T09:57:49.258Z,10.93
2019-04-29T10:00:31.770Z,10.86
2019-04-29T10:03:05.161Z,10.85
2019-04-29T10:05:38.349Z,10.93
2019-04-29T10:08:06.813Z,10.86
2019-04-29T10:10:37.252Z,10.79
2019-04-29T10:13:06.194Z,10.81
2019-04-29T10:15:36.212Z,10.78
2019-04-29T10:18:15.103Z,10.74
2019-04-29T10:20:45.122Z,10.79
2019-04-29T10:23:13.565Z,10.65
2019-04-29T10:25:42.019Z,10.64
2019-04-29T10:28:10.484Z,10.62
2019-04-29T10:30:38.980Z,10.62
2019-04-29T10:33:07.400Z,10.67
2019-04-29T10:35:35.928Z,10.65
2019-04-29T10:38:05.711Z,10.62
2019-04-29T10:40:52.143Z,10.62
2019-04-29T10:43:24.957Z,10.67
2019-04-29T10:46:01.187Z,10.79
2019-04-29T10:48:43.549Z,10.77
2019-04-29T10:51:13.522Z,10.85
2019-04-29T10:53:41.928Z,10.76
2019-04-29T10:56:10.314Z,10.57
2019-04-29T10:58:38.876Z,10.51
2019-04-29T11:01:29.119Z,10.50
2019-04-29T11:04:00.688Z,10.55
2019-04-29T11:06:31.397Z,10.24
2019-04-29T11:08:59.504Z,10.01
2019-04-29T11:11:29.670Z,9.93
2019-04-29T11:14:01.509Z,9.83
2019-04-29T11:16:45.338Z,9.70
2019-04-29T11:19:00.288Z,9.63
2019-04-29T11:21:29.526Z,9.60
2019-04-29T11:24:03.467Z,9.51
2019-04-29T11:26:33.494Z,9.44
2019-04-29T11:29:05.332Z,9.33
2019-04-29T11:31:33.663Z,9.20
2019-04-29T11:34:21.565Z,9.10
2019-04-29T11:36:49.952Z,9.09
2019-04-29T11:39:18.339Z,8.85
2019-04-29T11:41:49.915Z,8.93
2019-04-29T11:44:16.933Z,9.00
2019-04-29T11:46:49.112Z,8.92
2019-04-29T11:49:17.485Z,8.87
2019-04-29T11:52:07.888Z,8.94
2019-04-29T11:54:18.462Z,8.89
2019-04-29T11:56:46.870Z,8.84
2019-04-29T11:59:19.467Z,8.84
2019-04-29T12:01:53.513Z,8.91
2019-04-29T12:04:28.647Z,8.99
2019-04-29T12:06:58.120Z,9.04
2019-04-29T12:09:30.601Z,8.98
2019-04-29T12:11:57.338Z,9.09
2019-04-29T12:14:27.361Z,9.19
2019-04-29T12:17:13.200Z,9.27
2019-04-29T12:19:43.290Z,9.16
2019-04-29T12:22:26.018Z,9.31
2019-04-29T12:24:41.774Z,9.28
2019-04-29T12:27:14.725Z,9.16
2019-04-29T12:29:42.100Z,8.94
2019-04-29T12:32:12.194Z,8.88
2019-04-29T12:34:51.247Z,8.74
2019-04-29T12:37:34.490Z,8.68
2019-04-29T12:40:04.690Z,8.61
2019-04-29T12:42:43.736Z,8.61
2019-04-29T12:45:19.977Z,8.65
2019-04-29T12:47:48.389Z,8.74
2019-04-29T12:50:17.539Z,8.82
2019-04-29T12:52:46.876Z,8.81
2019-04-29T12:55:20.302Z,8.83
2019-04-29T12:57:47.080Z,8.80
2019-04-29T13:00:17.174Z,8.65
2019-04-29T13:02:59.785Z,8.64
2019-04-29T13:05:27.476Z,8.60
2019-04-29T13:07:57.562Z,8.56
2019-04-29T13:10:27.823Z,8.57
2019-04-29T13:12:58.151Z,8.54
2019-04-29T13:15:48.552Z,8.47
2019-04-29T13:18:23.051Z,8.41
2019-04-29T13:20:50.591Z,8.43
2019-04-29T13:23:19.453Z,8.51
2019-04-29T13:25:46.500Z,8.51
2019-04-29T13:28:29.020Z,8.48
2019-04-29T13:30:45.381Z,8.47
2019-04-29T13:33:16.583Z,8.56
2019-04-29T13:35:48.339Z,8.65
2019-04-29T13:38:14.274Z,8.70
2019-04-29T13:40:42.683Z,8.73
2019-04-29T13:43:11.110Z,8.75
2019-04-29T13:45:41.117Z,8.79
2019-04-29T13:48:14.185Z,8.82
2019-04-29T13:50:44.251Z,8.75
2019-04-29T13:53:16.687Z,8.65
2019-04-29T13:55:48.252Z,8.63
2019-04-29T13:58:12.968Z,8.64
2019-04-29T14:00:45.885Z,8.63
2019-04-29T14:03:18.613Z,8.63
2019-04-29T14:05:46.999Z,8.62
2019-04-29T14:08:15.435Z,8.67
2019-04-29T14:10:46.774Z,8.69
2019-04-29T14:13:17.671Z,8.66
2019-04-29T14:15:44.078Z,8.66
2019-04-29T14:18:13.719Z,8.60
2019-04-29T14:20:42.163Z,8.51
2019-04-29T14:23:10.544Z,8.45
2019-04-29T14:25:39.004Z,8.39
2019-04-29T14:28:07.411Z,8.34
2019-04-29T14:30:38.989Z,8.36
2019-04-29T14:33:05.929Z,8.29
2019-04-29T14:35:38.532Z,8.24
2019-04-29T14:38:06.952Z,8.15
2019-04-29T14:40:39.138Z,8.09
2019-04-29T14:43:28.699Z,8.05
2019-04-29T14:45:54.945Z,8.03
2019-04-29T14:48:41.293Z,8.00
2019-04-29T14:50:57.933Z,7.97
2019-04-29T14:53:26.400Z,7.94
2019-04-29T14:55:54.778Z,7.97
2019-04-29T14:58:23.190Z,8.01
2019-04-29T15:00:53.256Z,8.00
2019-04-29T15:03:23.388Z,8.00
2019-04-29T15:05:51.962Z,7.97
2019-04-29T15:08:20.474Z,7.95
2019-04-29T15:10:50.581Z,7.92
2019-04-29T15:13:21.839Z,7.89
2019-04-29T15:16:03.727Z,7.90
2019-04-29T15:18:45.989Z,7.90
2019-04-29T15:21:12.116Z,7.79
2019-04-29T15:23:40.536Z,7.72
2019-04-29T15:26:08.925Z,7.67
2019-04-29T15:28:52.297Z,7.62
2019-04-29T15:31:23.523Z,7.60
2019-04-29T15:33:52.149Z,7.54
2019-04-29T15:36:20.537Z,7.49
2019-04-29T15:39:08.271Z,7.44
2019-04-29T15:41:19.198Z,7.41
2019-04-29T15:43:48.353Z,7.37
2019-04-29T15:46:16.958Z,7.39
2019-04-29T15:48:45.344Z,7.40
2019-04-29T15:51:14.776Z,7.42
2019-04-29T15:53:43.193Z,7.42
2019-04-29T15:56:27.610Z,7.42
2019-04-29T15:58:41.929Z,7.47
2019-04-29T16:01:16.931Z,7.45
2019-04-29T16:03:40.695Z,7.42
2019-04-29T16:06:21.119Z,7.43
2019-04-29T16:08:47.914Z,7.33
2019-04-29T16:11:34.726Z,7.41
2019-04-29T16:14:09.358Z,7.42
2019-04-29T16:16:34.009Z,7.42
2019-04-29T16:19:08.112Z,7.41
2019-04-29T16:24:24.327Z,7.30
2019-04-29T16:26:32.827Z,7.36
2019-04-29T16:29:01.205Z,7.32
2019-04-29T16:31:29.654Z,7.29
2019-04-29T16:33:58.035Z,7.25
2019-04-29T16:36:26.489Z,7.21
2019-04-29T16:38:54.875Z,7.21
2019-04-29T16:41:41.197Z,7.12
2019-04-29T16:44:33.992Z,7.19
2019-04-29T16:46:41.331Z,7.17
2019-04-29T16:49:10.013Z,7.17
2019-04-29T16:51:38.425Z,7.16
2019-04-29T16:54:06.857Z,7.17
2019-04-29T16:56:35.240Z,7.15
2019-04-29T16:59:09.115Z,7.13
2019-04-29T17:01:33.729Z,7.13
2019-04-29T17:04:05.324Z,7.11
2019-04-29T17:06:36.123Z,7.11
2019-04-29T17:09:05.451Z,7.04
2019-04-29T17:11:41.840Z,7.05
2019-04-29T17:14:12.614Z,7.03
2019-04-29T17:16:40.421Z,7.03
2019-04-29T17:19:08.790Z,7.00
2019-04-29T17:21:37.242Z,7.00
2019-04-29T17:24:05.623Z,7.02
2019-04-29T17:26:41.143Z,7.04
2019-04-29T17:29:38.843Z,7.03
2019-04-29T17:32:16.249Z,7.02
2019-04-29T17:34:58.824Z,6.99
2019-04-29T17:37:17.058Z,7.01
2019-04-29T17:39:45.486Z,6.98
2019-04-29T17:42:13.875Z,6.95
2019-04-29T17:44:44.161Z,6.94
2019-04-29T17:47:30.449Z,6.98
2019-04-29T17:50:01.982Z,7.00
2019-04-29T17:52:30.688Z,7.06
2019-04-29T17:55:15.974Z,7.08
2019-04-29T17:57:51.762Z,7.11
2019-04-29T18:00:43.770Z,7.10
2019-04-29T18:03:17.817Z,7.02
2019-04-29T18:06:05.313Z,6.97
2019-04-29T18:08:34.987Z,6.94
2019-04-29T18:11:07.961Z,6.97
2019-04-29T18:13:35.284Z,7.01
2019-04-29T18:16:11.573Z,7.03
2019-04-29T18:18:57.451Z,7.03
2019-04-29T18:21:37.270Z,7.02
2019-04-29T18:24:15.230Z,6.98
2019-04-29T18:26:49.592Z,6.95
2019-04-29T18:29:18.126Z,6.91
2019-04-29T18:31:46.676Z,6.88
2019-04-29T18:34:15.380Z,6.89
2019-04-29T18:36:43.757Z,6.91
2019-04-29T18:39:15.897Z,6.90
2019-04-29T18:41:44.799Z,6.91
2019-04-29T18:44:19.187Z,6.88
2019-04-29T18:46:52.694Z,6.87
2019-04-29T18:49:15.861Z,6.87
2019-04-29T18:51:45.583Z,6.76
2019-04-29T18:54:13.958Z,6.81
2019-04-29T18:56:42.366Z,6.83
2019-04-29T18:59:10.744Z,6.85
2019-04-29T19:01:39.158Z,6.85
2019-04-29T19:04:18.608Z,6.86
2019-04-29T19:06:45.473Z,6.87
2019-04-29T19:09:20.124Z,6.84
2019-04-29T19:11:46.275Z,6.84
2019-04-29T19:14:25.547Z,6.85
2019-04-29T19:16:52.697Z,6.78
2019-04-29T19:19:21.843Z,6.90
2019-04-29T19:21:50.302Z,6.88
2019-04-29T19:24:18.700Z,6.88
2019-04-29T19:26:47.084Z,6.89
2019-04-29T19:29:15.672Z,6.88
2019-04-29T19:31:48.754Z,6.88
2019-04-29T19:34:18.535Z,6.88
2019-04-29T19:36:45.181Z,6.86
2019-04-29T19:39:16.982Z,6.86
2019-04-29T19:41:45.456Z,6.85
2019-04-29T19:44:15.546Z,6.87
2019-04-29T19:46:49.923Z,6.85
2019-04-29T19:49:18.313Z,6.76
2019-04-29T19:51:47.581Z,6.84
2019-04-29T19:54:16.909Z,6.73
2019-04-29T19:56:46.134Z,6.84
2019-04-29T19:59:16.996Z,6.86
2019-04-29T20:01:48.825Z,6.87
2019-04-29T20:04:23.290Z,6.90
2019-04-29T20:06:56.026Z,6.90
2019-04-29T20:09:23.859Z,6.90
2019-04-29T20:12:00.198Z,6.87
2019-04-29T20:14:33.485Z,6.87
2019-04-29T20:17:18.598Z,6.89
2019-04-29T20:19:55.493Z,6.92
2019-04-29T20:22:19.372Z,6.92
2019-04-29T20:24:50.594Z,6.92
2019-04-29T20:27:17.916Z,6.95
2019-04-29T20:29:46.602Z,6.96
2019-04-29T20:32:16.585Z,7.00
2019-04-29T20:34:46.076Z,7.03
2019-04-29T20:37:16.201Z,7.05
2019-04-29T20:39:45.680Z,7.04
2019-04-29T20:42:15.877Z,7.04
2019-04-29T20:44:45.744Z,7.03
2019-04-29T20:47:22.263Z,7.03
2019-04-29T20:50:09.029Z,7.04
2019-04-29T20:52:37.358Z,7.04
2019-04-29T20:55:09.331Z,7.05
2019-04-29T20:57:37.798Z,7.07
2019-04-29T21:00:07.195Z,7.10
2019-04-29T21:02:37.418Z,7.11
2019-04-29T21:05:09.683Z,7.11
2019-04-29T21:07:36.870Z,7.09
2019-04-29T21:10:08.577Z,7.07
2019-04-29T21:12:41.361Z,6.45
2019-04-29T21:15:17.241Z,7.05
2019-04-29T21:17:45.975Z,7.06
2019-04-29T21:20:14.552Z,7.07
2019-04-29T21:22:42.937Z,7.05
2019-04-29T21:25:11.539Z,7.03
2019-04-29T21:27:39.969Z,7.03
2019-04-29T21:30:08.852Z,7.00
2019-04-29T21:32:38.942Z,7.01
2019-04-29T21:35:10.162Z,7.01
2019-04-29T21:37:46.716Z,7.02
2019-04-29T21:40:14.755Z,7.02
2019-04-29T21:42:47.391Z,7.02
2019-04-29T21:45:17.456Z,7.02
2019-04-29T21:47:53.056Z,7.01
2019-04-29T21:50:17.822Z,7.00
2019-04-29T21:52:46.849Z,6.98
2019-04-29T21:55:16.110Z,6.98
2019-04-29T21:57:44.652Z,6.99
2019-04-29T22:00:15.649Z,7.00
2019-04-29T22:02:46.685Z,7.02
2019-04-29T22:05:18.236Z,7.02
2019-04-29T22:07:47.382Z,7.04
2019-04-29T22:10:19.949Z,7.04
2019-04-29T22:12:45.958Z,7.05
2019-04-29T22:15:16.348Z,7.04
2019-04-29T22:17:56.152Z,7.02
2019-04-29T22:20:15.908Z,7.05
2019-04-29T22:22:45.580Z,7.07
2019-04-29T22:25:15.715Z,7.07
2019-04-29T22:27:45.091Z,7.06
2019-04-29T22:30:18.370Z,7.07
2019-04-29T22:32:47.093Z,7.05
2019-04-29T22:35:16.536Z,7.05
2019-04-29T22:37:45.392Z,7.03
2019-04-29T22:40:17.008Z,7.06
2019-04-29T22:42:48.631Z,7.06
2019-04-29T22:45:16.186Z,7.06
2019-04-29T22:47:44.605Z,7.06
2019-04-29T22:50:13.096Z,7.09
2019-04-29T22:52:41.495Z,7.11
2019-04-29T22:55:10.157Z,7.11
2019-04-29T22:57:38.579Z,7.11
2019-04-29T23:00:08.325Z,7.14
2019-04-29T23:02:36.751Z,7.15
2019-04-29T23:05:05.848Z,7.14
2019-04-29T23:07:35.230Z,7.13
2019-04-29T23:10:06.273Z,7.13
2019-04-29T23:12:35.067Z,7.12
2019-04-29T23:15:05.742Z,7.14
2019-04-29T23:17:35.456Z,7.15
2019-04-29T23:20:10.785Z,7.19
2019-04-29T23:22:40.873Z,7.17
2019-04-29T23:25:11.050Z,7.16
2019-04-29T23:27:39.506Z,7.17
2019-04-29T23:30:08.832Z,7.19
2019-04-29T23:32:39.530Z,7.18
2019-04-29T23:35:09.646Z,7.20
2019-04-29T23:37:37.820Z,7.24
2019-04-29T23:40:07.296Z,7.23
2019-04-29T23:42:35.703Z,7.21
2019-04-29T23:45:05.462Z,7.22
2019-04-29T23:47:35.591Z,7.22
2019-04-29T23:50:04.895Z,7.23
2019-04-29T23:52:33.297Z,7.22
2019-04-29T23:55:01.691Z,7.23
2019-04-29T23:57:31.789Z,7.25
